createdAt,value
2023-05-06T00:04:57.811Z,12.480588
2023-05-06T00:09:59.143Z,12.438834
2023-05-06T00:15:00.539Z,12.102988
2023-05-06T00:20:01.846Z,12.86941
2023-05-06T00:25:03.204Z,12.399388
2023-05-06T00:30:04.427Z,12.655526
2023-05-06T00:35:05.833Z,12.74248
2023-05-06T00:40:07.413Z,12.890768
2023-05-06T00:45:08.890Z,12.725708
2023-05-06T00:50:10.281Z,12.648918
2023-05-06T00:55:11.697Z,12.578574
2023-05-06T01:00:13.043Z,12.66375
2023-05-06T01:05:14.301Z,12.348366
2023-05-06T01:10:15.856Z,11.712674
2023-05-06T01:15:17.137Z,11.998394
2023-05-06T01:20:18.408Z,11.673132
2023-05-06T01:25:19.706Z,11.55927
2023-05-06T01:30:21.035Z,11.79283
2023-05-06T01:35:22.282Z,11.0236
2023-05-06T01:40:23.542Z,11.13597
2023-05-06T01:45:24.936Z,10.523362
2023-05-06T01:50:26.193Z,11.26925
2023-05-06T01:55:27.524Z,11.521412
2023-05-06T02:00:28.745Z,11.821178
2023-05-06T02:05:29.982Z,11.184794
2023-05-06T02:10:31.227Z,11.5555
2023-05-06T02:15:32.668Z,11.04268
2023-05-06T02:20:34.018Z,11.168184
2023-05-06T02:25:35.433Z,11.498466
2023-05-06T02:30:36.786Z,11.46415
2023-05-06T02:35:38.113Z,11.226886
2023-05-06T02:40:39.484Z,11.07374
2023-05-06T02:45:40.773Z,11.366516
2023-05-06T02:50:42.095Z,11.015052
2023-05-06T02:55:43.695Z,10.524406
2023-05-06T03:00:44.932Z,10.374626
2023-05-06T03:05:46.337Z,10.600638
2023-05-06T03:10:47.796Z,10.513808
2023-05-06T03:15:49.020Z,10.503658
2023-05-06T03:20:50.270Z,10.815838
2023-05-06T03:25:51.952Z,10.473928
2023-05-06T03:30:53.341Z,11.240564
2023-05-06T03:35:54.608Z,10.370554
2023-05-06T03:40:55.879Z,10.685652
2023-05-06T03:45:57.148Z,10.80934
2023-05-06T03:50:58.507Z,9.523328
2023-05-06T03:55:59.807Z,10.196784
2023-05-06T04:01:01.170Z,9.869324
2023-05-06T04:06:02.429Z,10.473494
2023-05-06T04:11:03.804Z,10.155178
2023-05-06T04:16:05.146Z,10.390854
2023-05-06T04:21:06.476Z,10.064386
2023-05-06T04:26:07.751Z,9.603212
2023-05-06T04:31:09.029Z,9.468602
2023-05-06T04:36:10.320Z,9.73367
2023-05-06T04:41:11.914Z,9.52934
2023-05-06T04:46:13.223Z,9.654396
2023-05-06T04:51:14.509Z,9.927578
2023-05-06T04:56:15.809Z,10.18917
2023-05-06T05:01:17.086Z,10.249188
2023-05-06T05:06:18.376Z,11.154778
2023-05-06T05:11:19.784Z,10.815294
2023-05-06T05:16:21.091Z,11.36828
2023-05-06T05:21:22.526Z,11.20896
2023-05-06T05:26:23.810Z,11.180002
2023-05-06T05:31:25.089Z,11.99849
2023-05-06T05:36:26.387Z,11.67225
2023-05-06T05:41:27.708Z,11.436794
2023-05-06T05:46:29.008Z,12.185886
2023-05-06T05:51:30.551Z,11.405896
2023-05-06T05:56:31.986Z,12.366998
2023-05-06T06:01:33.277Z,12.314036
2023-05-06T06:06:34.535Z,12.786608
2023-05-06T06:11:36.101Z,12.651226
2023-05-06T06:16:37.531Z,12.075552
2023-05-06T06:21:38.859Z,12.415102
2023-05-06T06:26:40.178Z,12.973828
2023-05-06T06:31:41.468Z,13.392394
2023-05-06T06:36:42.745Z,14.425022
2023-05-06T06:41:44.100Z,13.937956
2023-05-06T06:46:45.526Z,15.041758
2023-05-06T06:51:46.839Z,15.275846
2023-05-06T06:56:48.266Z,16.19464
2023-05-06T07:01:49.551Z,15.97617
2023-05-06T07:06:50.827Z,17.083962
2023-05-06T07:11:52.129Z,17.33774
2023-05-06T07:16:53.627Z,17.409428
2023-05-06T07:21:55.111Z,18.046926
2023-05-06T07:26:56.402Z,18.673216
2023-05-06T07:31:57.798Z,18.472576
2023-05-06T07:36:59.060Z,18.89938
2023-05-06T07:42:00.331Z,19.588782
2023-05-06T07:47:02.034Z,19.557002
2023-05-06T07:52:03.720Z,19.789354
2023-05-06T07:57:05.061Z,20.54655
2023-05-06T08:02:06.405Z,21.209234
2023-05-06T08:07:07.737Z,20.867796
2023-05-06T08:12:09.038Z,21.425316
2023-05-06T08:17:10.298Z,21.142336
2023-05-06T08:22:11.580Z,21.240322
2023-05-06T08:27:12.848Z,20.349886
2023-05-06T08:32:14.149Z,19.925362
2023-05-06T08:37:15.474Z,19.911494
2023-05-06T08:42:16.807Z,20.288972
2023-05-06T08:47:18.049Z,20.957844
2023-05-06T08:52:19.304Z,20.635702
2023-05-06T08:57:20.597Z,21.174998
2023-05-06T09:02:21.943Z,20.920392
2023-05-06T09:07:23.518Z,20.347742
2023-05-06T09:12:24.926Z,19.288406
2023-05-06T09:17:26.364Z,19.469804
2023-05-06T09:22:27.883Z,19.710596
2023-05-06T09:27:29.206Z,20.116652
2023-05-06T09:32:30.531Z,19.647226
2023-05-06T09:37:31.855Z,19.34073
2023-05-06T09:42:33.143Z,19.378698
2023-05-06T09:47:34.594Z,19.991744
2023-05-06T09:52:35.973Z,21.135022
2023-05-06T09:57:37.500Z,19.378576
2023-05-06T10:02:39.043Z,19.71502
2023-05-06T10:07:40.578Z,19.76136
2023-05-06T10:12:41.868Z,19.688166
2023-05-06T10:17:43.215Z,19.489738
2023-05-06T10:22:44.754Z,19.75429
2023-05-06T10:27:46.048Z,18.378024
2023-05-06T10:32:47.656Z,17.93894
2023-05-06T10:37:48.980Z,17.590894
2023-05-06T10:42:50.270Z,17.404028
2023-05-06T10:47:51.828Z,17.293422
2023-05-06T10:52:53.237Z,18.146934
2023-05-06T10:57:54.552Z,17.315052
2023-05-06T11:02:56.244Z,17.507224
2023-05-06T11:07:57.623Z,16.381942
2023-05-06T11:12:58.920Z,16.305762
2023-05-06T11:18:00.282Z,16.348058
2023-05-06T11:23:01.577Z,16.772894
2023-05-06T11:28:02.822Z,16.867704
2023-05-06T11:33:05.531Z,17.637682
2023-05-06T11:38:07.151Z,17.593472
2023-05-06T11:43:08.496Z,18.110812
2023-05-06T11:48:09.784Z,17.480194
2023-05-06T11:53:11.398Z,16.848626
2023-05-06T11:58:13.290Z,17.217772
2023-05-06T12:03:14.694Z,17.219808
2023-05-06T12:08:26.803Z,16.614714
2023-05-06T12:13:29.870Z,16.868926
2023-05-06T12:18:31.489Z,16.498992
2023-05-06T12:23:33.212Z,16.51841
2023-05-06T12:28:35.293Z,16.772636
2023-05-06T12:33:36.963Z,17.561774
2023-05-06T12:38:38.678Z,17.379494
2023-05-06T12:43:40.203Z,17.322732
2023-05-06T12:48:41.524Z,17.488498
2023-05-06T12:53:42.846Z,16.744384
2023-05-06T12:58:44.410Z,16.413192
2023-05-06T13:03:45.864Z,16.485314
2023-05-06T13:08:47.566Z,16.356444
2023-05-06T13:13:49.270Z,17.240026
2023-05-06T13:18:50.987Z,17.04803
2023-05-06T13:23:52.601Z,16.591672
2023-05-06T13:28:54.247Z,16.614538
2023-05-06T13:33:55.920Z,16.546662
2023-05-06T13:38:57.540Z,16.990834
2023-05-06T13:43:59.170Z,16.595648
2023-05-06T13:49:00.852Z,15.851006
2023-05-06T13:54:02.184Z,16.07432
2023-05-06T13:59:03.635Z,15.898228
2023-05-06T14:04:04.983Z,16.116426
2023-05-06T14:09:06.284Z,17.234462
2023-05-06T14:14:07.622Z,17.806202
2023-05-06T14:19:08.968Z,18.375554
2023-05-06T14:24:10.283Z,17.356018
2023-05-06T14:29:11.858Z,17.223688
2023-05-06T14:34:13.152Z,17.536792
2023-05-06T14:39:14.490Z,16.994376
2023-05-06T14:44:15.993Z,15.973782
2023-05-06T14:49:17.609Z,16.789842
2023-05-06T14:54:19.025Z,16.756922
2023-05-06T14:59:20.505Z,16.236924
2023-05-06T15:04:21.918Z,16.376744
2023-05-06T15:09:23.525Z,17.130574
2023-05-06T15:14:25.156Z,16.711288
2023-05-06T15:19:26.784Z,16.170636
2023-05-06T15:24:28.410Z,16.111134
2023-05-06T15:29:29.710Z,14.763446
2023-05-06T15:34:31.077Z,14.540662
2023-05-06T15:39:32.684Z,15.10928
2023-05-06T15:44:34.404Z,15.763088
2023-05-06T15:49:51.412Z,15.226588
2023-05-06T15:54:58.842Z,15.370466
2023-05-06T16:00:01.434Z,15.602696
2023-05-06T16:05:02.656Z,14.935128
2023-05-06T16:10:03.969Z,15.12825
2023-05-06T16:15:05.468Z,15.630066
2023-05-06T16:20:06.836Z,14.967166
2023-05-06T16:25:08.256Z,15.317504
2023-05-06T16:30:09.779Z,14.168694
2023-05-06T16:35:11.520Z,14.939362
2023-05-06T16:40:13.030Z,15.762464
2023-05-06T16:45:14.456Z,14.99056
2023-05-06T16:50:15.850Z,15.164712
2023-05-06T16:55:17.106Z,14.437994
2023-05-06T17:00:18.537Z,14.961426
2023-05-06T17:05:22.012Z,14.959934
2023-05-06T17:10:23.579Z,14.583636
2023-05-06T17:15:24.900Z,14.445322
2023-05-06T17:20:26.177Z,14.733078
2023-05-06T17:25:27.755Z,13.80256
2023-05-06T17:30:29.316Z,14.575522
2023-05-06T17:35:30.597Z,14.830888
2023-05-06T17:40:32.029Z,14.47816
2023-05-06T17:45:33.536Z,14.822054
2023-05-06T17:50:35.102Z,15.255194
2023-05-06T17:55:36.749Z,14.697336
2023-05-06T18:00:38.345Z,14.359088
2023-05-06T18:05:40.031Z,13.36387
2023-05-06T18:10:41.672Z,13.897982
2023-05-06T18:15:43.392Z,14.4425
2023-05-06T18:20:45.138Z,13.744306
2023-05-06T18:25:46.732Z,14.356618
2023-05-06T18:30:48.322Z,14.690972
2023-05-06T18:35:49.875Z,12.95388
2023-05-06T18:40:51.605Z,13.095194
2023-05-06T18:45:53.356Z,13.509608
2023-05-06T18:50:55.217Z,14.205942
2023-05-06T18:55:56.828Z,14.554774
2023-05-06T19:00:58.764Z,14.77836
2023-05-06T19:06:00.378Z,14.191382
2023-05-06T19:11:02.064Z,14.51929
2023-05-06T19:16:03.583Z,14.110968
2023-05-06T19:21:04.870Z,13.53273
2023-05-06T19:26:06.597Z,13.896842
2023-05-06T19:31:08.487Z,14.026322
2023-05-06T19:36:09.788Z,13.28012
2023-05-06T19:41:11.057Z,13.050632
2023-05-06T19:46:12.607Z,13.732664
2023-05-06T19:51:13.947Z,13.353816
2023-05-06T19:56:15.418Z,13.776182
2023-05-06T20:01:17.037Z,14.496006
2023-05-06T20:06:18.324Z,13.200236
2023-05-06T20:11:19.590Z,13.12962
2023-05-06T20:16:21.389Z,12.4054
2023-05-06T20:21:22.675Z,13.130612
2023-05-06T20:26:25.042Z,12.980722
2023-05-06T20:31:26.490Z,13.442262
2023-05-06T20:36:28.816Z,13.175526
2023-05-06T20:41:30.092Z,13.886692
2023-05-06T20:46:31.568Z,13.974242
2023-05-06T20:51:32.914Z,14.43113
2023-05-06T20:56:34.198Z,13.481708
2023-05-06T21:01:35.548Z,13.645276
2023-05-06T21:06:37.007Z,13.210386
2023-05-06T21:11:38.331Z,13.179936
2023-05-06T21:16:39.781Z,12.756254
2023-05-06T21:21:41.252Z,13.32646
2023-05-06T21:26:42.519Z,13.14684
2023-05-06T21:31:43.841Z,12.66941
2023-05-06T21:36:45.125Z,12.485556
2023-05-06T21:41:46.560Z,12.843032
2023-05-06T21:46:48.008Z,13.002514
2023-05-06T21:51:49.408Z,12.822012
2023-05-06T21:56:50.873Z,12.308406
2023-05-06T22:01:52.344Z,12.277522
2023-05-06T22:06:53.744Z,12.61927
2023-05-06T22:11:55.017Z,12.615308
2023-05-06T22:16:56.807Z,12.391818
2023-05-06T22:21:58.118Z,12.268078
2023-05-06T22:26:59.403Z,12.683102
2023-05-06T22:32:00.878Z,12.44345
2023-05-06T22:37:02.406Z,12.20304
2023-05-06T22:42:03.996Z,12.043382
2023-05-06T22:47:05.252Z,11.421448
2023-05-06T22:52:06.480Z,12.142574
2023-05-06T22:57:07.841Z,11.888376
2023-05-06T23:02:09.179Z,11.666488
2023-05-06T23:07:10.475Z,11.417148
2023-05-06T23:12:11.814Z,12.010176
2023-05-06T23:17:13.138Z,11.295334
2023-05-06T23:22:14.514Z,10.98641
2023-05-06T23:27:16.031Z,11.098508
2023-05-06T23:32:17.268Z,11.131604
2023-05-06T23:37:18.566Z,10.82329
2023-05-06T23:42:19.894Z,11.376262
2023-05-06T23:47:21.674Z,11.343776
2023-05-06T23:52:23.081Z,11.091886
2023-05-06T23:57:24.456Z,10.840944
